createdAt,value
2022-08-28T00:03:36.191Z,0.90
2022-08-28T00:09:01.191Z,1.17
2022-08-28T00:14:27.208Z,0.90
2022-08-28T00:19:52.215Z,1.00
2022-08-28T00:25:18.218Z,1.00
2022-08-28T00:30:44.228Z,1.05
2022-08-28T00:36:10.208Z,1.10
2022-08-28T00:41:33.210Z,1.15
2022-08-28T00:47:01.222Z,1.05
2022-08-28T00:52:27.254Z,0.90
2022-08-28T00:58:01.246Z,1.00
2022-08-28T01:03:26.553Z,1.23
2022-08-28T01:08:55.512Z,0.98
2022-08-28T01:14:23.267Z,0.80
2022-08-28T01:19:50.246Z,1.00
2022-08-28T01:25:19.258Z,0.80
2022-08-28T01:30:44.333Z,1.10
2022-08-28T01:36:07.276Z,1.00
2022-08-28T01:41:32.262Z,1.17
2022-08-28T01:46:55.264Z,1.13
2022-08-28T01:52:19.276Z,1.00
2022-08-28T01:57:53.287Z,1.10
2022-08-28T02:03:16.288Z,1.10
2022-08-28T02:08:40.300Z,1.15
2022-08-28T02:14:05.279Z,1.08
2022-08-28T02:19:29.293Z,0.85
2022-08-28T02:24:52.286Z,0.82
2022-08-28T02:30:19.294Z,1.00
2022-08-28T02:35:42.321Z,1.00
2022-08-28T02:41:05.326Z,1.17
2022-08-28T02:46:31.413Z,0.82
2022-08-28T02:51:54.303Z,0.95
2022-08-28T02:57:17.324Z,1.10
2022-08-28T03:02:42.365Z,1.20
2022-08-28T03:08:06.375Z,1.20
2022-08-28T03:13:30.344Z,1.10
2022-08-28T03:18:55.339Z,1.30
2022-08-28T03:24:18.332Z,1.05
2022-08-28T03:29:41.376Z,1.10
2022-08-28T03:35:06.364Z,1.05
2022-08-28T03:40:29.399Z,0.93
2022-08-28T03:46:00.440Z,1.10
2022-08-28T03:51:29.559Z,0.90
2022-08-28T03:57:07.376Z,1.00
2022-08-28T04:02:30.398Z,0.77
2022-08-28T04:07:55.391Z,1.00
2022-08-28T04:13:19.416Z,1.00
2022-08-28T04:18:43.421Z,1.05
2022-08-28T04:24:09.754Z,0.75
2022-08-28T04:29:33.382Z,1.05
2022-08-28T04:34:57.382Z,0.90
2022-08-28T04:40:24.512Z,1.08
2022-08-28T04:45:48.538Z,1.00
2022-08-28T04:51:11.424Z,0.90
2022-08-28T04:56:36.399Z,0.93
2022-08-28T05:02:00.473Z,0.73
2022-08-28T05:07:23.429Z,1.27
2022-08-28T05:12:50.430Z,0.93
2022-08-28T05:18:13.597Z,1.20
2022-08-28T05:23:36.434Z,1.10
2022-08-28T05:29:02.419Z,0.93
2022-08-28T05:34:25.439Z,0.90
2022-08-28T05:39:48.439Z,0.93
2022-08-28T05:45:13.464Z,1.00
2022-08-28T05:50:36.451Z,1.20
2022-08-28T05:56:00.476Z,0.98
2022-08-28T06:01:27.486Z,1.20
2022-08-28T06:06:51.473Z,1.13
2022-08-28T06:12:15.463Z,1.15
2022-08-28T06:17:41.477Z,1.40
2022-08-28T06:23:05.474Z,1.40
2022-08-28T06:28:31.482Z,1.20
2022-08-28T06:33:56.745Z,1.10
2022-08-28T06:39:21.487Z,1.20
2022-08-28T06:44:45.488Z,1.20
2022-08-28T06:50:09.486Z,1.13
2022-08-28T06:55:32.502Z,1.05
2022-08-28T07:01:03.184Z,1.33
2022-08-28T07:06:28.502Z,1.20
2022-08-28T07:11:52.508Z,1.30
2022-08-28T07:17:15.507Z,1.30
2022-08-28T07:22:40.505Z,1.40
2022-08-28T07:28:03.547Z,1.40
2022-08-28T07:33:27.502Z,1.30
2022-08-28T07:38:52.519Z,1.15
2022-08-28T07:44:34.536Z,1.67
2022-08-28T07:49:59.531Z,1.30
2022-08-28T07:55:24.548Z,1.23
2022-08-28T08:00:47.553Z,1.27
2022-08-28T08:06:13.569Z,1.25
2022-08-28T08:11:38.552Z,1.35
2022-08-28T08:17:02.556Z,1.15
2022-08-28T08:22:25.562Z,1.30
2022-08-28T08:27:50.557Z,1.38
2022-08-28T08:33:13.568Z,1.45
2022-08-28T08:38:36.562Z,1.63
2022-08-28T08:44:06.563Z,1.42
2022-08-28T08:49:32.571Z,1.30
2022-08-28T08:55:15.583Z,1.40
2022-08-28T09:00:51.613Z,0.98
2022-08-28T09:06:26.600Z,1.40
2022-08-28T09:12:00.603Z,1.40
2022-08-28T09:17:27.586Z,1.30
2022-08-28T09:22:50.596Z,1.50
2022-08-28T09:28:15.610Z,1.40
2022-08-28T09:33:49.611Z,1.10
2022-08-28T09:39:18.621Z,1.70
2022-08-28T09:44:41.645Z,1.40
2022-08-28T09:50:23.641Z,1.63
2022-08-28T09:55:54.623Z,1.10
2022-08-28T10:01:36.662Z,1.25
2022-08-28T10:07:06.664Z,1.20
2022-08-28T10:12:41.653Z,1.55
2022-08-28T10:18:21.660Z,2.60
2022-08-28T10:23:58.656Z,4.50
2022-08-28T10:29:35.657Z,2.65
2022-08-28T10:35:08.652Z,1.90
2022-08-28T10:40:38.693Z,1.42
2022-08-28T10:46:02.755Z,1.73
2022-08-28T10:51:35.249Z,1.70
2022-08-28T10:57:06.678Z,1.50
2022-08-28T11:02:32.735Z,1.73
2022-08-28T11:07:59.682Z,1.70
2022-08-28T11:13:24.685Z,1.98
2022-08-28T11:19:08.710Z,1.90
2022-08-28T11:25:01.762Z,2.10
2022-08-28T11:30:41.756Z,2.00
2022-08-28T11:36:05.716Z,2.03
2022-08-28T11:41:32.721Z,2.30
2022-08-28T11:46:58.704Z,2.00
2022-08-28T11:52:49.720Z,1.85
2022-08-28T11:58:23.724Z,1.70
2022-08-28T12:03:49.750Z,1.77
2022-08-28T12:09:18.730Z,1.60
2022-08-28T12:15:14.753Z,1.73
2022-08-28T12:20:53.759Z,1.75
2022-08-28T12:26:26.735Z,1.98
2022-08-28T12:32:19.747Z,1.70
2022-08-28T12:37:52.455Z,1.75
2022-08-28T12:43:19.779Z,1.90
2022-08-28T12:48:56.778Z,1.80
2022-08-28T12:54:22.779Z,1.55
2022-08-28T12:59:54.788Z,2.10
2022-08-28T13:05:29.781Z,1.60
2022-08-28T13:11:01.781Z,1.92
2022-08-28T13:16:44.854Z,1.52
2022-08-28T13:22:10.800Z,1.52
2022-08-28T13:27:35.803Z,1.50
2022-08-28T13:33:10.812Z,1.40
2022-08-28T13:38:33.846Z,1.67
2022-08-28T13:44:00.798Z,1.77
2022-08-28T13:49:24.821Z,1.73
2022-08-28T13:54:47.811Z,1.55
2022-08-28T14:00:19.834Z,1.25
2022-08-28T14:05:42.832Z,1.50
2022-08-28T14:11:05.844Z,1.40
2022-08-28T14:16:30.876Z,1.23
2022-08-28T14:21:55.843Z,1.48
2022-08-28T14:27:18.850Z,1.40
2022-08-28T14:32:43.856Z,1.30
2022-08-28T14:38:06.867Z,1.20
2022-08-28T14:43:29.871Z,1.30
2022-08-28T14:48:54.860Z,1.40
2022-08-28T14:54:19.864Z,1.00
2022-08-28T14:59:49.874Z,1.50
2022-08-28T15:05:15.901Z,1.30
2022-08-28T15:10:38.911Z,1.25
2022-08-28T15:16:15.614Z,1.05
2022-08-28T15:21:44.890Z,1.25
2022-08-28T15:27:08.913Z,2.53
2022-08-28T15:32:33.925Z,1.40
2022-08-28T15:37:59.919Z,1.00
2022-08-28T15:43:22.924Z,1.00
2022-08-28T15:48:45.931Z,1.27
2022-08-28T15:54:18.921Z,1.00
2022-08-28T15:59:50.744Z,1.23
2022-08-28T16:05:14.940Z,0.90
2022-08-28T16:10:39.940Z,1.13
2022-08-28T16:16:03.010Z,0.90
2022-08-28T16:21:28.142Z,1.20
2022-08-28T16:26:52.938Z,1.05
2022-08-28T16:32:15.959Z,1.30
2022-08-28T16:37:40.118Z,1.00
2022-08-28T16:43:04.988Z,0.95
2022-08-28T16:48:28.003Z,0.77
2022-08-28T16:53:50.980Z,1.00
2022-08-28T16:59:15.962Z,0.80
2022-08-28T17:04:40.032Z,1.00
2022-08-28T17:10:02.979Z,0.93
2022-08-28T17:15:30.020Z,1.08
2022-08-28T17:21:11.059Z,0.90
2022-08-28T17:26:35.002Z,0.88
2022-08-28T17:32:00.011Z,0.73
2022-08-28T17:37:22.991Z,1.10
2022-08-28T17:42:46.023Z,0.90
2022-08-28T17:48:11.054Z,0.77
2022-08-28T17:53:34.037Z,0.82
2022-08-28T17:59:04.106Z,1.05
2022-08-28T18:04:30.091Z,0.80
2022-08-28T18:09:53.051Z,0.57
2022-08-28T18:15:19.026Z,0.90
2022-08-28T18:20:44.036Z,0.95
2022-08-28T18:26:07.104Z,1.05
2022-08-28T18:31:30.110Z,0.95
2022-08-28T18:36:55.053Z,0.77
2022-08-28T18:42:19.072Z,0.85
2022-08-28T18:47:42.079Z,0.88
2022-08-28T18:53:08.078Z,0.93
2022-08-28T18:58:34.075Z,0.77
2022-08-28T19:03:57.082Z,0.85
2022-08-28T19:09:22.071Z,1.10
2022-08-28T19:14:45.085Z,0.95
2022-08-28T19:20:10.092Z,1.10
2022-08-28T19:25:37.086Z,1.00
2022-08-28T19:31:01.173Z,0.95
2022-08-28T19:36:25.111Z,0.80
2022-08-28T19:41:51.087Z,0.70
2022-08-28T19:47:14.104Z,0.90
2022-08-28T19:52:37.110Z,1.10
2022-08-28T19:58:02.122Z,0.80
2022-08-28T20:03:27.153Z,1.00
2022-08-28T20:08:50.133Z,0.88
2022-08-28T20:14:15.115Z,0.80
2022-08-28T20:19:40.136Z,0.90
2022-08-28T20:25:03.142Z,0.93
2022-08-28T20:30:28.170Z,0.80
2022-08-28T20:35:51.149Z,0.90
2022-08-28T20:41:19.169Z,0.80
2022-08-28T20:46:44.172Z,0.82
2022-08-28T20:52:14.152Z,0.80
2022-08-28T20:57:37.169Z,0.82
2022-08-28T21:03:02.158Z,0.63
2022-08-28T21:08:25.176Z,1.00
2022-08-28T21:13:48.182Z,0.77
2022-08-28T21:19:16.012Z,0.75
2022-08-28T21:24:40.173Z,0.70
2022-08-28T21:30:05.190Z,1.10
2022-08-28T21:35:31.190Z,0.65
2022-08-28T21:40:55.216Z,0.80
2022-08-28T21:46:19.263Z,0.77
2022-08-28T21:51:44.190Z,0.80
2022-08-28T22:04:44.195Z,0.73
2022-08-28T22:10:09.217Z,0.88
2022-08-28T22:15:32.210Z,0.80
2022-08-28T22:21:13.215Z,1.00
2022-08-28T22:26:38.234Z,0.85
2022-08-28T22:32:01.259Z,0.90
2022-08-28T22:37:25.228Z,0.68
2022-08-28T22:42:50.235Z,0.75
2022-08-28T22:48:13.416Z,0.85
2022-08-28T22:53:37.313Z,0.80
2022-08-28T22:59:02.248Z,0.90
2022-08-28T23:04:33.266Z,0.88
2022-08-28T23:09:56.241Z,0.68
2022-08-28T23:15:24.247Z,0.82
2022-08-28T23:20:47.260Z,0.70
2022-08-28T23:26:13.258Z,0.80
2022-08-28T23:31:38.354Z,0.73
2022-08-28T23:37:01.287Z,0.80
2022-08-28T23:42:24.272Z,0.60
2022-08-28T23:47:51.281Z,0.80
2022-08-28T23:53:14.288Z,0.90
2022-08-28T23:58:39.293Z,0.77
